sensor_id;sensor_type;location;lat;lon;timestamp;pressure;altitude;pressure_sealevel;temperature;humidity
23446;BME280;11895;48.738;9.320;2023-02-08T00:01:22;100818.16;;;-0.72;100.00
23446;BME280;11895;48.738;9.320;2023-02-08T00:03:51;100815.69;;;-0.66;100.00
23446;BME280;11895;48.738;9.320;2023-02-08T00:06:19;100815.53;;;-0.72;100.00
23446;BME280;11895;48.738;9.320;2023-02-08T00:08:46;100797.75;;;-0.76;100.00
23446;BME280;11895;48.738;9.320;2023-02-08T00:11:14;100802.03;;;-0.80;100.00
23446;BME280;11895;48.738;9.320;2023-02-08T00:13:42;100798.47;;;-0.82;100.00
23446;BME280;11895;48.738;9.320;2023-02-08T00:16:11;100783.34;;;-0.86;100.00
23446;BME280;11895;48.738;9.320;2023-02-08T00:18:40;100780.72;;;-0.85;100.00
23446;BME280;11895;48.738;9.320;2023-02-08T00:21:13;100774.41;;;-0.90;100.00
23446;BME280;11895;48.738;9.320;2023-02-08T00:23:43;100777.97;;;-0.88;100.00
23446;BME280;11895;48.738;9.320;2023-02-08T00:26:11;100771.00;;;-0.86;100.00
23446;BME280;11895;48.738;9.320;2023-02-08T00:28:40;100783.38;;;-0.85;100.00
23446;BME280;11895;48.738;9.320;2023-02-08T00:31:08;100775.16;;;-0.94;100.00
23446;BME280;11895;48.738;9.320;2023-02-08T00:33:36;100777.84;;;-0.92;100.00
23446;BME280;11895;48.738;9.320;2023-02-08T00:36:06;100775.41;;;-0.86;100.00
23446;BME280;11895;48.738;9.320;2023-02-08T00:38:35;100769.13;;;-0.90;100.00
23446;BME280;11895;48.738;9.320;2023-02-08T00:41:03;100762.03;;;-0.91;100.00
23446;BME280;11895;48.738;9.320;2023-02-08T00:43:31;100772.78;;;-0.85;100.00
23446;BME280;11895;48.738;9.320;2023-02-08T00:45:59;100764.72;;;-0.89;100.00
23446;BME280;11895;48.738;9.320;2023-02-08T00:48:27;100761.81;;;-0.97;100.00
23446;BME280;11895;48.738;9.320;2023-02-08T00:51:04;100753.78;;;-1.01;100.00
23446;BME280;11895;48.738;9.320;2023-02-08T00:53:42;100766.03;;;-1.04;100.00
23446;BME280;11895;48.738;9.320;2023-02-08T00:56:13;100761.47;;;-1.09;100.00
23446;BME280;11895;48.738;9.320;2023-02-08T00:58:42;100779.09;;;-1.08;100.00
23446;BME280;11895;48.738;9.320;2023-02-08T01:01:10;100777.50;;;-1.03;100.00
23446;BME280;11895;48.738;9.320;2023-02-08T01:03:40;100771.94;;;-1.12;100.00
23446;BME280;11895;48.738;9.320;2023-02-08T01:06:11;100775.59;;;-1.07;100.00
23446;BME280;11895;48.738;9.320;2023-02-08T01:08:41;100784.22;;;-1.14;100.00
23446;BME280;11895;48.738;9.320;2023-02-08T01:11:12;100777.31;;;-1.09;100.00
23446;BME280;11895;48.738;9.320;2023-02-08T01:13:45;100787.16;;;-1.05;100.00
23446;BME280;11895;48.738;9.320;2023-02-08T01:16:19;100786.19;;;-1.07;100.00
23446;BME280;11895;48.738;9.320;2023-02-08T01:18:52;100791.41;;;-1.10;100.00
23446;BME280;11895;48.738;9.320;2023-02-08T01:21:24;100782.44;;;-1.15;100.00
23446;BME280;11895;48.738;9.320;2023-02-08T01:23:59;100780.50;;;-1.21;100.00
23446;BME280;11895;48.738;9.320;2023-02-08T01:26:30;100779.84;;;-1.12;100.00
23446;BME280;11895;48.738;9.320;2023-02-08T01:28:58;100777.22;;;-1.12;100.00
23446;BME280;11895;48.738;9.320;2023-02-08T01:31:29;100778.63;;;-1.23;100.00
23446;BME280;11895;48.738;9.320;2023-02-08T01:34:00;100775.25;;;-1.19;100.00
23446;BME280;11895;48.738;9.320;2023-02-08T01:36:30;100777.03;;;-1.18;100.00
23446;BME280;11895;48.738;9.320;2023-02-08T01:39:00;100764.75;;;-1.16;100.00
23446;BME280;11895;48.738;9.320;2023-02-08T01:41:31;100759.44;;;-1.16;100.00
23446;BME280;11895;48.738;9.320;2023-02-08T01:46:42;100748.03;;;-1.15;100.00
23446;BME280;11895;48.738;9.320;2023-02-08T01:49:15;100757.75;;;-1.14;100.00
23446;BME280;11895;48.738;9.320;2023-02-08T01:52:03;100764.75;;;-1.16;100.00
23446;BME280;11895;48.738;9.320;2023-02-08T01:54:42;100747.09;;;-1.17;100.00
23446;BME280;11895;48.738;9.320;2023-02-08T01:57:14;100745.41;;;-1.15;100.00
23446;BME280;11895;48.738;9.320;2023-02-08T01:59:50;100741.00;;;-1.15;100.00
23446;BME280;11895;48.738;9.320;2023-02-08T02:02:22;100745.28;;;-1.18;100.00
23446;BME280;11895;48.738;9.320;2023-02-08T02:04:53;100742.78;;;-1.14;100.00
23446;BME280;11895;48.738;9.320;2023-02-08T02:07:23;100750.75;;;-1.12;100.00
23446;BME280;11895;48.738;9.320;2023-02-08T02:10:02;100749.69;;;-1.19;100.00
23446;BME280;11895;48.738;9.320;2023-02-08T02:12:35;100744.53;;;-1.14;100.00
23446;BME280;11895;48.738;9.320;2023-02-08T02:15:05;100738.09;;;-1.22;100.00
23446;BME280;11895;48.738;9.320;2023-02-08T02:17:35;100741.41;;;-1.30;100.00
23446;BME280;11895;48.738;9.320;2023-02-08T02:20:23;100739.63;;;-1.31;100.00
23446;BME280;11895;48.738;9.320;2023-02-08T02:23:56;100732.44;;;-1.35;100.00
23446;BME280;11895;48.738;9.320;2023-02-08T02:44:34;100720.72;;;-1.43;100.00
23446;BME280;11895;48.738;9.320;2023-02-08T02:49:59;100710.25;;;-1.40;100.00
23446;BME280;11895;48.738;9.320;2023-02-08T02:52:36;100725.16;;;-1.42;100.00
23446;BME280;11895;48.738;9.320;2023-02-08T02:55:21;100720.53;;;-1.49;100.00
23446;BME280;11895;48.738;9.320;2023-02-08T02:57:52;100729.59;;;-1.41;100.00
23446;BME280;11895;48.738;9.320;2023-02-08T03:00:25;100723.38;;;-1.43;100.00
23446;BME280;11895;48.738;9.320;2023-02-08T03:02:55;100723.56;;;-1.37;100.00
23446;BME280;11895;48.738;9.320;2023-02-08T03:05:25;100729.44;;;-1.45;100.00
23446;BME280;11895;48.738;9.320;2023-02-08T03:08:59;100723.06;;;-1.52;100.00
23446;BME280;11895;48.738;9.320;2023-02-08T03:17:05;100726.25;;;-1.62;100.00
23446;BME280;11895;48.738;9.320;2023-02-08T03:20:25;100716.06;;;-1.50;100.00
23446;BME280;11895;48.738;9.320;2023-02-08T03:25:36;100721.09;;;-1.59;100.00
23446;BME280;11895;48.738;9.320;2023-02-08T03:31:37;100718.28;;;-1.64;100.00
23446;BME280;11895;48.738;9.320;2023-02-08T03:37:22;100724.47;;;-1.63;100.00
23446;BME280;11895;48.738;9.320;2023-02-08T03:40:06;100722.69;;;-1.64;100.00
23446;BME280;11895;48.738;9.320;2023-02-08T03:42:39;100719.25;;;-1.60;100.00
23446;BME280;11895;48.738;9.320;2023-02-08T03:45:17;100729.94;;;-1.57;100.00
23446;BME280;11895;48.738;9.320;2023-02-08T03:47:49;100729.78;;;-1.62;100.00
23446;BME280;11895;48.738;9.320;2023-02-08T03:50:21;100718.22;;;-1.65;100.00
23446;BME280;11895;48.738;9.320;2023-02-08T03:52:51;100731.50;;;-1.89;100.00
23446;BME280;11895;48.738;9.320;2023-02-08T03:55:26;100722.28;;;-2.02;100.00
23446;BME280;11895;48.738;9.320;2023-02-08T04:00:45;100714.56;;;-1.96;100.00
23446;BME280;11895;48.738;9.320;2023-02-08T04:03:20;100721.31;;;-2.29;100.00
23446;BME280;11895;48.738;9.320;2023-02-08T04:05:51;100720.78;;;-1.94;100.00
23446;BME280;11895;48.738;9.320;2023-02-08T04:08:19;100720.84;;;-1.92;100.00
23446;BME280;11895;48.738;9.320;2023-02-08T04:10:48;100718.25;;;-1.91;100.00
23446;BME280;11895;48.738;9.320;2023-02-08T04:13:16;100715.88;;;-1.83;100.00
23446;BME280;11895;48.738;9.320;2023-02-08T04:15:43;100727.53;;;-1.76;100.00
23446;BME280;11895;48.738;9.320;2023-02-08T04:18:11;100723.13;;;-1.77;100.00
23446;BME280;11895;48.738;9.320;2023-02-08T04:20:39;100726.06;;;-1.68;100.00
23446;BME280;11895;48.738;9.320;2023-02-08T04:23:07;100719.06;;;-1.66;100.00
23446;BME280;11895;48.738;9.320;2023-02-08T04:25:35;100712.78;;;-1.70;100.00
23446;BME280;11895;48.738;9.320;2023-02-08T04:28:02;100718.19;;;-1.67;100.00
23446;BME280;11895;48.738;9.320;2023-02-08T04:30:30;100715.56;;;-1.65;100.00
23446;BME280;11895;48.738;9.320;2023-02-08T04:32:58;100711.88;;;-1.70;100.00
23446;BME280;11895;48.738;9.320;2023-02-08T04:35:26;100712.84;;;-1.68;100.00
23446;BME280;11895;48.738;9.320;2023-02-08T04:37:54;100702.06;;;-1.74;100.00
23446;BME280;11895;48.738;9.320;2023-02-08T04:40:21;100706.41;;;-1.76;100.00
23446;BME280;11895;48.738;9.320;2023-02-08T04:42:49;100708.00;;;-1.82;100.00
23446;BME280;11895;48.738;9.320;2023-02-08T04:45:17;100701.66;;;-1.87;100.00
23446;BME280;11895;48.738;9.320;2023-02-08T04:47:44;100708.53;;;-1.92;100.00
23446;BME280;11895;48.738;9.320;2023-02-08T04:50:17;100699.88;;;-1.88;100.00
23446;BME280;11895;48.738;9.320;2023-02-08T04:52:45;100694.78;;;-1.82;100.00
23446;BME280;11895;48.738;9.320;2023-02-08T04:55:12;100703.25;;;-1.92;100.00
23446;BME280;11895;48.738;9.320;2023-02-08T04:57:40;100701.56;;;-1.90;100.00
23446;BME280;11895;48.738;9.320;2023-02-08T05:00:08;100696.34;;;-1.88;100.00
23446;BME280;11895;48.738;9.320;2023-02-08T05:02:36;100697.25;;;-1.88;100.00
23446;BME280;11895;48.738;9.320;2023-02-08T05:05:05;100688.56;;;-1.84;100.00
23446;BME280;11895;48.738;9.320;2023-02-08T05:07:33;100693.63;;;-1.90;100.00
23446;BME280;11895;48.738;9.320;2023-02-08T05:10:01;100694.63;;;-1.86;100.00
23446;BME280;11895;48.738;9.320;2023-02-08T05:12:30;100683.19;;;-1.87;100.00
23446;BME280;11895;48.738;9.320;2023-02-08T05:14:58;100685.81;;;-1.87;100.00
23446;BME280;11895;48.738;9.320;2023-02-08T05:17:26;100684.97;;;-1.86;100.00
23446;BME280;11895;48.738;9.320;2023-02-08T05:19:54;100687.66;;;-1.84;100.00
23446;BME280;11895;48.738;9.320;2023-02-08T05:22:22;100690.38;;;-1.83;100.00
23446;BME280;11895;48.738;9.320;2023-02-08T05:24:49;100686.75;;;-1.85;100.00
23446;BME280;11895;48.738;9.320;2023-02-08T05:27:17;100686.66;;;-1.88;100.00
23446;BME280;11895;48.738;9.320;2023-02-08T05:29:45;100692.94;;;-1.84;100.00
23446;BME280;11895;48.738;9.320;2023-02-08T05:32:13;100693.63;;;-1.90;100.00
23446;BME280;11895;48.738;9.320;2023-02-08T05:34:40;100696.22;;;-1.91;100.00
23446;BME280;11895;48.738;9.320;2023-02-08T05:37:08;100698.84;;;-1.93;100.00
23446;BME280;11895;48.738;9.320;2023-02-08T05:39:36;100690.84;;;-1.94;100.00
23446;BME280;11895;48.738;9.320;2023-02-08T05:42:04;100688.03;;;-1.99;100.00
23446;BME280;11895;48.738;9.320;2023-02-08T05:44:32;100696.94;;;-1.97;100.00
23446;BME280;11895;48.738;9.320;2023-02-08T05:47:00;100707.28;;;-2.03;100.00
23446;BME280;11895;48.738;9.320;2023-02-08T05:49:28;100705.47;;;-2.04;100.00
23446;BME280;11895;48.738;9.320;2023-02-08T05:51:56;100710.53;;;-2.10;100.00
23446;BME280;11895;48.738;9.320;2023-02-08T05:54:23;100708.63;;;-2.14;100.00
23446;BME280;11895;48.738;9.320;2023-02-08T05:56:51;100699.78;;;-2.16;100.00
23446;BME280;11895;48.738;9.320;2023-02-08T05:59:19;100702.25;;;-2.21;100.00
23446;BME280;11895;48.738;9.320;2023-02-08T06:01:46;100711.03;;;-2.22;100.00
23446;BME280;11895;48.738;9.320;2023-02-08T06:04:14;100708.13;;;-2.29;100.00
23446;BME280;11895;48.738;9.320;2023-02-08T06:06:41;100709.81;;;-2.31;100.00
23446;BME280;11895;48.738;9.320;2023-02-08T06:09:09;100715.88;;;-2.34;100.00
23446;BME280;11895;48.738;9.320;2023-02-08T06:11:37;100713.94;;;-2.38;100.00
23446;BME280;11895;48.738;9.320;2023-02-08T06:14:04;100715.44;;;-2.46;100.00
23446;BME280;11895;48.738;9.320;2023-02-08T06:16:32;100714.75;;;-2.41;100.00
23446;BME280;11895;48.738;9.320;2023-02-08T06:19:00;100710.53;;;-2.36;100.00
23446;BME280;11895;48.738;9.320;2023-02-08T06:21:53;100719.34;;;-2.35;100.00
23446;BME280;11895;48.738;9.320;2023-02-08T06:24:21;100709.69;;;-2.35;100.00
23446;BME280;11895;48.738;9.320;2023-02-08T06:26:49;100714.84;;;-2.38;100.00
23446;BME280;11895;48.738;9.320;2023-02-08T06:29:17;100718.66;;;-2.29;100.00
23446;BME280;11895;48.738;9.320;2023-02-08T06:31:50;100715.09;;;-2.31;100.00
23446;BME280;11895;48.738;9.320;2023-02-08T06:34:18;100716.88;;;-2.30;100.00
23446;BME280;11895;48.738;9.320;2023-02-08T06:36:46;100710.03;;;-2.25;100.00
23446;BME280;11895;48.738;9.320;2023-02-08T06:39:14;100720.47;;;-2.28;100.00
23446;BME280;11895;48.738;9.320;2023-02-08T06:41:41;100717.28;;;-2.18;100.00
23446;BME280;11895;48.738;9.320;2023-02-08T06:44:09;100714.09;;;-2.10;100.00
23446;BME280;11895;48.738;9.320;2023-02-08T06:46:37;100716.63;;;-2.13;100.00
23446;BME280;11895;48.738;9.320;2023-02-08T06:49:04;100706.84;;;-2.15;100.00
23446;BME280;11895;48.738;9.320;2023-02-08T06:51:32;100714.13;;;-2.08;100.00
23446;BME280;11895;48.738;9.320;2023-02-08T06:54:00;100711.66;;;-2.03;100.00
23446;BME280;11895;48.738;9.320;2023-02-08T06:56:27;100707.50;;;-1.97;100.00
23446;BME280;11895;48.738;9.320;2023-02-08T06:58:56;100707.28;;;-2.03;100.00
23446;BME280;11895;48.738;9.320;2023-02-08T07:01:24;100722.59;;;-1.93;100.00
23446;BME280;11895;48.738;9.320;2023-02-08T07:03:52;100721.53;;;-1.98;100.00
23446;BME280;11895;48.738;9.320;2023-02-08T07:06:20;100708.69;;;-1.87;100.00
23446;BME280;11895;48.738;9.320;2023-02-08T07:08:47;100715.00;;;-1.84;100.00
23446;BME280;11895;48.738;9.320;2023-02-08T07:11:17;100721.06;;;-1.86;100.00
23446;BME280;11895;48.738;9.320;2023-02-08T07:13:50;100720.28;;;-1.84;100.00
23446;BME280;11895;48.738;9.320;2023-02-08T07:16:19;100724.91;;;-1.76;100.00
23446;BME280;11895;48.738;9.320;2023-02-08T07:18:50;100725.75;;;-1.77;100.00
23446;BME280;11895;48.738;9.320;2023-02-08T07:21:17;100734.53;;;-1.78;100.00
23446;BME280;11895;48.738;9.320;2023-02-08T07:23:45;100728.44;;;-1.76;100.00
23446;BME280;11895;48.738;9.320;2023-02-08T07:26:13;100741.97;;;-1.67;100.00
23446;BME280;11895;48.738;9.320;2023-02-08T07:28:41;100723.97;;;-1.78;100.00
23446;BME280;11895;48.738;9.320;2023-02-08T07:31:11;100729.63;;;-1.66;100.00
23446;BME280;11895;48.738;9.320;2023-02-08T07:33:41;100725.84;;;-1.74;100.00
23446;BME280;11895;48.738;9.320;2023-02-08T07:36:09;100732.63;;;-1.56;100.00
23446;BME280;11895;48.738;9.320;2023-02-08T07:38:38;100724.78;;;-1.54;100.00
23446;BME280;11895;48.738;9.320;2023-02-08T07:41:11;100726.75;;;-1.47;100.00
23446;BME280;11895;48.738;9.320;2023-02-08T07:43:41;100730.84;;;-1.57;100.00
23446;BME280;11895;48.738;9.320;2023-02-08T07:46:21;100731.94;;;-1.50;100.00
23446;BME280;11895;48.738;9.320;2023-02-08T07:48:49;100729.25;;;-1.51;100.00
23446;BME280;11895;48.738;9.320;2023-02-08T07:51:22;100730.38;;;-1.45;100.00
23446;BME280;11895;48.738;9.320;2023-02-08T07:53:50;100727.34;;;-1.28;100.00
23446;BME280;11895;48.738;9.320;2023-02-08T07:56:18;100723.25;;;-1.19;100.00
23446;BME280;11895;48.738;9.320;2023-02-08T07:58:46;100716.63;;;-1.05;100.00
23446;BME280;11895;48.738;9.320;2023-02-08T08:01:14;100728.38;;;-0.95;100.00
23446;BME280;11895;48.738;9.320;2023-02-08T08:03:51;100722.63;;;-0.82;100.00
23446;BME280;11895;48.738;9.320;2023-02-08T08:06:21;100722.56;;;-0.83;100.00
23446;BME280;11895;48.738;9.320;2023-02-08T08:08:49;100726.47;;;-0.70;100.00
23446;BME280;11895;48.738;9.320;2023-02-08T08:11:19;100723.09;;;-0.65;100.00
23446;BME280;11895;48.738;9.320;2023-02-08T08:13:47;100720.63;;;-0.59;100.00
23446;BME280;11895;48.738;9.320;2023-02-08T08:16:16;100719.59;;;-0.64;100.00
23446;BME280;11895;48.738;9.320;2023-02-08T08:18:44;100717.00;;;-0.62;100.00
23446;BME280;11895;48.738;9.320;2023-02-08T08:21:12;100713.16;;;-0.43;100.00
23446;BME280;11895;48.738;9.320;2023-02-08T08:23:42;100715.22;;;-0.32;100.00
23446;BME280;11895;48.738;9.320;2023-02-08T08:26:20;100709.00;;;-0.34;100.00
23446;BME280;11895;48.738;9.320;2023-02-08T08:28:47;100714.63;;;-0.21;100.00
23446;BME280;11895;48.738;9.320;2023-02-08T08:31:18;100713.75;;;-0.20;100.00
23446;BME280;11895;48.738;9.320;2023-02-08T08:33:47;100709.47;;;-0.15;100.00
23446;BME280;11895;48.738;9.320;2023-02-08T08:36:15;100716.28;;;0.08;100.00
23446;BME280;11895;48.738;9.320;2023-02-08T08:38:43;100707.41;;;0.06;100.00
23446;BME280;11895;48.738;9.320;2023-02-08T08:41:13;100705.00;;;0.15;100.00
23446;BME280;11895;48.738;9.320;2023-02-08T08:43:44;100703.19;;;0.14;100.00
23446;BME280;11895;48.738;9.320;2023-02-08T08:46:12;100703.38;;;0.20;100.00
23446;BME280;11895;48.738;9.320;2023-02-08T08:48:40;100710.31;;;0.51;96.79
23446;BME280;11895;48.738;9.320;2023-02-08T08:51:13;100709.75;;;0.65;97.53
23446;BME280;11895;48.738;9.320;2023-02-08T08:53:41;100706.44;;;0.73;92.60
23446;BME280;11895;48.738;9.320;2023-02-08T08:56:09;100705.81;;;0.87;95.83
23446;BME280;11895;48.738;9.320;2023-02-08T08:58:36;100705.78;;;0.84;96.04
23446;BME280;11895;48.738;9.320;2023-02-08T09:01:04;100696.56;;;0.68;92.82
23446;BME280;11895;48.738;9.320;2023-02-08T09:03:32;100701.59;;;0.95;92.74
23446;BME280;11895;48.738;9.320;2023-02-08T09:06:00;100690.41;;;1.10;88.81
23446;BME280;11895;48.738;9.320;2023-02-08T09:08:28;100684.84;;;1.40;90.38
23446;BME280;11895;48.738;9.320;2023-02-08T09:10:55;100686.47;;;1.32;88.18
23446;BME280;11895;48.738;9.320;2023-02-08T09:13:23;100688.38;;;1.39;82.01
23446;BME280;11895;48.738;9.320;2023-02-08T09:15:51;100685.03;;;1.49;81.16
23446;BME280;11895;48.738;9.320;2023-02-08T09:18:19;100682.84;;;1.73;73.80
23446;BME280;11895;48.738;9.320;2023-02-08T09:20:49;100682.03;;;1.77;73.06
23446;BME280;11895;48.738;9.320;2023-02-08T09:23:17;100680.19;;;1.73;70.74
23446;BME280;11895;48.738;9.320;2023-02-08T09:25:44;100684.44;;;2.12;72.59
23446;BME280;11895;48.738;9.320;2023-02-08T09:28:12;100680.31;;;2.28;70.18
23446;BME280;11895;48.738;9.320;2023-02-08T09:30:40;100681.53;;;2.50;65.47
23446;BME280;11895;48.738;9.320;2023-02-08T09:33:09;100684.75;;;2.30;63.82
23446;BME280;11895;48.738;9.320;2023-02-08T09:35:36;100671.03;;;2.59;60.94
23446;BME280;11895;48.738;9.320;2023-02-08T09:38:05;100678.28;;;2.69;56.80
23446;BME280;11895;48.738;9.320;2023-02-08T09:40:38;100664.22;;;2.76;55.97
23446;BME280;11895;48.738;9.320;2023-02-08T09:43:20;100667.41;;;3.15;55.27
23446;BME280;11895;48.738;9.320;2023-02-08T09:46:10;100674.78;;;3.35;54.04
23446;BME280;11895;48.738;9.320;2023-02-08T09:48:44;100666.91;;;3.48;52.87
23446;BME280;11895;48.738;9.320;2023-02-08T09:56:38;100646.31;;;4.18;53.04
23446;BME280;11895;48.738;9.320;2023-02-08T09:59:28;100646.31;;;4.18;50.91
23446;BME280;11895;48.738;9.320;2023-02-08T10:02:38;100648.25;;;4.37;48.51
23446;BME280;11895;48.738;9.320;2023-02-08T10:07:49;100641.28;;;4.55;47.32
23446;BME280;11895;48.738;9.320;2023-02-08T10:10:40;100639.59;;;4.74;50.38
23446;BME280;11895;48.738;9.320;2023-02-08T10:17:01;100639.72;;;4.90;47.14
23446;BME280;11895;48.738;9.320;2023-02-08T10:20:07;100643.41;;;5.20;45.46
23446;BME280;11895;48.738;9.320;2023-02-08T10:26:12;100655.94;;;5.35;51.62
23446;BME280;11895;48.738;9.320;2023-02-08T10:37:32;100638.88;;;4.99;49.14
23446;BME280;11895;48.738;9.320;2023-02-08T10:42:50;100623.91;;;5.43;47.95
23446;BME280;11895;48.738;9.320;2023-02-08T10:45:30;100624.88;;;5.61;48.05
23446;BME280;11895;48.738;9.320;2023-02-08T10:48:10;100623.13;;;5.86;50.56
23446;BME280;11895;48.738;9.320;2023-02-08T10:50:44;100615.16;;;5.96;47.94
23446;BME280;11895;48.738;9.320;2023-02-08T10:53:15;100620.50;;;6.02;46.61
23446;BME280;11895;48.738;9.320;2023-02-08T10:55:48;100622.22;;;5.78;45.27
23446;BME280;11895;48.738;9.320;2023-02-08T10:58:19;100617.78;;;5.91;42.59
23446;BME280;11895;48.738;9.320;2023-02-08T11:00:49;100607.03;;;5.57;42.67
23446;BME280;11895;48.738;9.320;2023-02-08T11:03:24;100602.63;;;5.85;43.51
23446;BME280;11895;48.738;9.320;2023-02-08T11:05:53;100600.88;;;6.12;42.89
23446;BME280;11895;48.738;9.320;2023-02-08T11:08:25;100592.84;;;6.39;42.84
23446;BME280;11895;48.738;9.320;2023-02-08T11:11:10;100591.91;;;6.47;42.12
23446;BME280;11895;48.738;9.320;2023-02-08T11:13:43;100587.47;;;6.62;43.19
23446;BME280;11895;48.738;9.320;2023-02-08T11:16:20;100580.28;;;6.69;42.66
23446;BME280;11895;48.738;9.320;2023-02-08T11:18:52;100575.81;;;6.77;43.04
23446;BME280;11895;48.738;9.320;2023-02-08T11:21:36;100584.72;;;6.79;41.67
23446;BME280;11895;48.738;9.320;2023-02-08T11:24:26;100581.88;;;7.22;41.76
23446;BME280;11895;48.738;9.320;2023-02-08T11:26:54;100570.06;;;7.54;42.02
23446;BME280;11895;48.738;9.320;2023-02-08T11:29:25;100557.63;;;7.46;41.62
23446;BME280;11895;48.738;9.320;2023-02-08T11:34:32;100547.19;;;6.91;40.43
23446;BME280;11895;48.738;9.320;2023-02-08T11:37:17;100544.28;;;7.30;41.27
23446;BME280;11895;48.738;9.320;2023-02-08T11:39:52;100547.00;;;7.25;41.07
23446;BME280;11895;48.738;9.320;2023-02-08T11:42:28;100544.38;;;7.17;41.63
23446;BME280;11895;48.738;9.320;2023-02-08T11:45:04;100548.81;;;7.20;41.80
23446;BME280;11895;48.738;9.320;2023-02-08T11:47:36;100539.72;;;7.48;41.37
23446;BME280;11895;48.738;9.320;2023-02-08T11:50:06;100530.69;;;7.59;42.17
23446;BME280;11895;48.738;9.320;2023-02-08T11:52:43;100537.69;;;7.84;40.42
23446;BME280;11895;48.738;9.320;2023-02-08T11:58:04;100525.00;;;8.02;39.64
23446;BME280;11895;48.738;9.320;2023-02-08T12:01:03;100531.53;;;7.68;39.04
23446;BME280;11895;48.738;9.320;2023-02-08T12:03:37;100514.53;;;7.74;41.02
23446;BME280;11895;48.738;9.320;2023-02-08T12:09:41;100525.53;;;7.28;39.77
23446;BME280;11895;48.738;9.320;2023-02-08T12:15:21;100516.53;;;7.38;41.37
23446;BME280;11895;48.738;9.320;2023-02-08T12:18:23;100508.63;;;8.32;39.97
23446;BME280;11895;48.738;9.320;2023-02-08T12:21:25;100510.31;;;9.16;38.74
23446;BME280;11895;48.738;9.320;2023-02-08T12:24:00;100505.91;;;9.71;37.65
23446;BME280;11895;48.738;9.320;2023-02-08T12:38:21;100472.03;;;11.42;32.78
23446;BME280;11895;48.738;9.320;2023-02-08T12:53:14;100456.13;;;11.67;32.67
23446;BME280;11895;48.738;9.320;2023-02-08T12:55:50;100455.28;;;9.40;34.85
23446;BME280;11895;48.738;9.320;2023-02-08T12:58:52;100445.09;;;9.62;38.27
23446;BME280;11895;48.738;9.320;2023-02-08T13:01:45;100436.47;;;10.84;35.01
23446;BME280;11895;48.738;9.320;2023-02-08T13:04:25;100426.22;;;12.74;35.00
23446;BME280;11895;48.738;9.320;2023-02-08T13:06:59;100424.59;;;13.82;31.22
23446;BME280;11895;48.738;9.320;2023-02-08T13:14:52;100417.78;;;14.47;30.10
23446;BME280;11895;48.738;9.320;2023-02-08T13:20:21;100422.22;;;16.68;27.12
23446;BME280;11895;48.738;9.320;2023-02-08T13:26:23;100402.50;;;17.03;26.57
23446;BME280;11895;48.738;9.320;2023-02-08T13:28:56;100404.47;;;16.99;26.55
23446;BME280;11895;48.738;9.320;2023-02-08T13:31:32;100405.66;;;16.93;26.33
23446;BME280;11895;48.738;9.320;2023-02-08T13:37:05;100398.19;;;18.24;25.64
23446;BME280;11895;48.738;9.320;2023-02-08T13:40:06;100391.72;;;17.73;24.77
23446;BME280;11895;48.738;9.320;2023-02-08T13:42:42;100399.34;;;18.54;24.47
23446;BME280;11895;48.738;9.320;2023-02-08T13:45:33;100393.88;;;17.67;25.22
23446;BME280;11895;48.738;9.320;2023-02-08T13:48:09;100399.97;;;16.79;26.81
23446;BME280;11895;48.738;9.320;2023-02-08T13:56:44;100401.44;;;17.79;26.89
23446;BME280;11895;48.738;9.320;2023-02-08T13:59:30;100398.00;;;17.93;25.70
23446;BME280;11895;48.738;9.320;2023-02-08T14:02:22;100403.81;;;17.68;25.62
23446;BME280;11895;48.738;9.320;2023-02-08T14:05:06;100407.75;;;18.66;26.27
23446;BME280;11895;48.738;9.320;2023-02-08T14:08:05;100410.34;;;17.28;25.04
23446;BME280;11895;48.738;9.320;2023-02-08T14:10:43;100406.72;;;16.50;25.39
23446;BME280;11895;48.738;9.320;2023-02-08T14:13:26;100415.72;;;16.11;28.06
23446;BME280;11895;48.738;9.320;2023-02-08T14:16:24;100402.09;;;16.91;27.39
23446;BME280;11895;48.738;9.320;2023-02-08T14:18:58;100411.09;;;17.12;26.27
23446;BME280;11895;48.738;9.320;2023-02-08T14:21:41;100399.22;;;18.22;27.25
23446;BME280;11895;48.738;9.320;2023-02-08T14:24:23;100406.97;;;19.13;24.48
23446;BME280;11895;48.738;9.320;2023-02-08T14:29:43;100413.00;;;18.02;25.13
23446;BME280;11895;48.738;9.320;2023-02-08T14:32:27;100407.44;;;19.37;24.27
23446;BME280;11895;48.738;9.320;2023-02-08T14:37:36;100410.13;;;18.90;25.28
23446;BME280;11895;48.738;9.320;2023-02-08T14:50:33;100401.38;;;17.62;26.37
23446;BME280;11895;48.738;9.320;2023-02-08T14:56:34;100408.31;;;18.56;24.80
23446;BME280;11895;48.738;9.320;2023-02-08T14:59:18;100404.22;;;18.14;25.53
23446;BME280;11895;48.738;9.320;2023-02-08T15:01:50;100415.03;;;18.15;24.43
23446;BME280;11895;48.738;9.320;2023-02-08T15:04:23;100405.88;;;18.16;24.03
23446;BME280;11895;48.738;9.320;2023-02-08T15:07:07;100404.34;;;17.02;27.38
23446;BME280;11895;48.738;9.320;2023-02-08T15:09:39;100405.00;;;17.62;25.67
23446;BME280;11895;48.738;9.320;2023-02-08T15:14:56;100416.50;;;15.93;26.76
23446;BME280;11895;48.738;9.320;2023-02-08T15:17:40;100418.97;;;16.40;25.98
23446;BME280;11895;48.738;9.320;2023-02-08T15:20:19;100428.06;;;16.59;26.32
23446;BME280;11895;48.738;9.320;2023-02-08T15:22:59;100411.53;;;16.84;27.40
23446;BME280;11895;48.738;9.320;2023-02-08T15:25:57;100402.44;;;16.04;26.88
23446;BME280;11895;48.738;9.320;2023-02-08T15:28:27;100411.06;;;16.34;26.38
23446;BME280;11895;48.738;9.320;2023-02-08T15:31:04;100408.50;;;16.10;27.64
23446;BME280;11895;48.738;9.320;2023-02-08T15:33:33;100404.38;;;15.58;27.16
23446;BME280;11895;48.738;9.320;2023-02-08T15:38:56;100407.97;;;12.82;29.73
23446;BME280;11895;48.738;9.320;2023-02-08T15:41:28;100406.50;;;14.09;29.00
23446;BME280;11895;48.738;9.320;2023-02-08T15:44:22;100401.19;;;14.06;28.85
23446;BME280;11895;48.738;9.320;2023-02-08T15:46:52;100401.78;;;13.62;29.07